LIMF Airport Information

Runway Information
Runway 18 Length 10827 ft width 197 ft
Elevation 981 ft Threshold 2378 ft Heading 183
Runway 36 Length 10827 ft Width 197 ft
Elevation 933 ft Threshold 1148 ft Heading 3
Airport Frequencies
Type APP Name APP Frequency 23.44 MHZ
Type APP Name APP Frequency 129.275 MHZ
Type ATIS Name ATIS Frequency 120.475 MHZ
Type GND Name GND Frequency 121.7 MHZ
Type TWR Name TWR Frequency 118.5 MHZ
Airport Navaids
Type TACAN Name Caselle Frequency 109500 KHZ
Type NDB Name Caselle Frequency 357 KHZ
Type VOR-DME Name Caselle Frequency 116750 KHZ
Type VOR-DME Name Torino Frequency 114500 KHZ
Type NDB Name Torino Frequency 393 KHZ
Airport Weather Information & NOTAM
ADDS - METARS form results

(1518 UTC 14 October 2019)
Data provider http://aviationweather.gov/metar/data/
 
METAR text: LIMF 141450Z VRB02KT CAVOK 20/12 Q1020
Conditions at: LIMF (TORINO/CASELLE , IT) observed 1450 UTC 14 October 2019
Temperature: 20.0°C (68°F)
Dewpoint: 12.0°C (54°F) [RH = 60%]
Pressure (altimeter): 30.12 inches Hg (1020.0 mb)
Winds: variable direction winds at 2 MPH (2 knots; 1.0 m/s)
Visibility: 6 or more miles (10+ km)
Ceiling: ceiling and visibility are OK
Clouds: unknown
Weather: no significant weather observed at this time

METAR text: LIMF 141420Z VRB01KT CAVOK 20/11 Q1020
Conditions at: LIMF (TORINO/CASELLE , IT) observed 1420 UTC 14 October 2019
Temperature: 20.0°C (68°F)
Dewpoint: 11.0°C (52°F) [RH = 56%]
Pressure (altimeter): 30.12 inches Hg (1020.0 mb)
Winds: variable direction winds at 1 MPH (1 knots; 0.5 m/s)
Visibility: 6 or more miles (10+ km)
Ceiling: ceiling and visibility are OK
Clouds: unknown
Weather: no significant weather observed at this time

Forecast for: LIMF (TORINO/CASELLE , IT)
Text: TAF LIMF 141100Z 1412/1512 VRB05KT 7000 SCT020 BKN050
Forecast period: 1200 UTC 14 October 2019 to 0000 UTC 15 October 2019
Forecast type: FROM: standard forecast or significant change
Winds: variable direction winds at 6 MPH (5 knots; 2.6 m/s)
Visibility: 4 miles (7 km)
Ceiling: 5000 feet AGL
Clouds: scattered clouds at 2000 feet AGL
broken clouds at 5000 feet AGL
Weather: no significant weather forecast for this period
Text: BECMG 1500/1503 RA
Forecast period: 0000 to 1200 UTC 15 October 2019
Forecast type: BECOMING: Conditions expected to become as follows by 0300 UTC 15 October 2019
Winds: variable direction winds at 6 MPH (5 knots; 2.6 m/s)
Visibility: 4 miles (7 km)
Ceiling: 5000 feet AGL
Clouds: scattered clouds at 2000 feet AGL
broken clouds at 5000 feet AGL
Weather: RA  (moderate rain)